sensor_id;sensor_type;location;lat;lon;timestamp;P1;durP1;ratioP1;P2;durP2;ratioP2
1721;SDS011;858;53.190;8.596;2024-03-08T00:01:47;39.47;;;20.60;;
1721;SDS011;858;53.190;8.596;2024-03-08T00:04:14;28.17;;;17.73;;
1721;SDS011;858;53.190;8.596;2024-03-08T00:06:42;42.73;;;22.00;;
1721;SDS011;858;53.190;8.596;2024-03-08T00:09:12;47.60;;;22.73;;
1721;SDS011;858;53.190;8.596;2024-03-08T00:11:39;32.60;;;18.03;;
1721;SDS011;858;53.190;8.596;2024-03-08T00:14:07;39.83;;;22.00;;
1721;SDS011;858;53.190;8.596;2024-03-08T00:16:33;42.03;;;21.17;;
1721;SDS011;858;53.190;8.596;2024-03-08T00:19:00;32.83;;;20.30;;
1721;SDS011;858;53.190;8.596;2024-03-08T00:21:27;30.60;;;18.80;;
1721;SDS011;858;53.190;8.596;2024-03-08T00:23:55;39.17;;;20.87;;
1721;SDS011;858;53.190;8.596;2024-03-08T00:26:21;38.03;;;19.13;;
1721;SDS011;858;53.190;8.596;2024-03-08T00:28:48;33.13;;;17.40;;
1721;SDS011;858;53.190;8.596;2024-03-08T00:31:14;33.80;;;19.50;;
1721;SDS011;858;53.190;8.596;2024-03-08T00:33:42;30.50;;;18.03;;
1721;SDS011;858;53.190;8.596;2024-03-08T00:36:07;37.00;;;19.63;;
1721;SDS011;858;53.190;8.596;2024-03-08T00:38:34;39.73;;;20.07;;
1721;SDS011;858;53.190;8.596;2024-03-08T00:41:06;29.80;;;17.80;;
1721;SDS011;858;53.190;8.596;2024-03-08T00:43:32;34.03;;;19.50;;
1721;SDS011;858;53.190;8.596;2024-03-08T00:45:59;34.67;;;19.47;;
1721;SDS011;858;53.190;8.596;2024-03-08T00:48:26;30.43;;;18.33;;
1721;SDS011;858;53.190;8.596;2024-03-08T00:50:52;30.37;;;19.40;;
1721;SDS011;858;53.190;8.596;2024-03-08T00:53:20;32.47;;;18.33;;
1721;SDS011;858;53.190;8.596;2024-03-08T00:55:47;30.30;;;17.70;;
1721;SDS011;858;53.190;8.596;2024-03-08T00:58:15;34.40;;;19.63;;
1721;SDS011;858;53.190;8.596;2024-03-08T01:00:42;31.73;;;18.67;;
1721;SDS011;858;53.190;8.596;2024-03-08T01:03:10;34.60;;;19.37;;
1721;SDS011;858;53.190;8.596;2024-03-08T01:05:39;30.20;;;18.37;;
1721;SDS011;858;53.190;8.596;2024-03-08T01:08:06;34.57;;;18.93;;
1721;SDS011;858;53.190;8.596;2024-03-08T01:10:32;31.77;;;18.73;;
1721;SDS011;858;53.190;8.596;2024-03-08T01:12:59;30.63;;;20.40;;
1721;SDS011;858;53.190;8.596;2024-03-08T01:15:27;30.13;;;18.20;;
1721;SDS011;858;53.190;8.596;2024-03-08T01:17:54;38.10;;;20.07;;
1721;SDS011;858;53.190;8.596;2024-03-08T01:20:20;30.10;;;18.20;;
1721;SDS011;858;53.190;8.596;2024-03-08T01:22:46;31.73;;;17.40;;
1721;SDS011;858;53.190;8.596;2024-03-08T01:25:13;34.90;;;18.83;;
1721;SDS011;858;53.190;8.596;2024-03-08T01:27:39;34.07;;;17.37;;
1721;SDS011;858;53.190;8.596;2024-03-08T01:30:07;31.63;;;18.03;;
1721;SDS011;858;53.190;8.596;2024-03-08T01:32:35;36.40;;;18.83;;
1721;SDS011;858;53.190;8.596;2024-03-08T01:35:02;32.63;;;19.90;;
1721;SDS011;858;53.190;8.596;2024-03-08T01:37:29;32.00;;;18.33;;
1721;SDS011;858;53.190;8.596;2024-03-08T01:39:55;29.40;;;17.07;;
1721;SDS011;858;53.190;8.596;2024-03-08T01:42:22;34.10;;;20.00;;
1721;SDS011;858;53.190;8.596;2024-03-08T01:44:48;38.23;;;18.90;;
1721;SDS011;858;53.190;8.596;2024-03-08T01:47:15;39.90;;;18.17;;
1721;SDS011;858;53.190;8.596;2024-03-08T01:49:43;37.63;;;20.40;;
1721;SDS011;858;53.190;8.596;2024-03-08T01:52:09;32.00;;;19.50;;
1721;SDS011;858;53.190;8.596;2024-03-08T01:54:36;29.10;;;18.17;;
1721;SDS011;858;53.190;8.596;2024-03-08T01:57:02;35.37;;;19.30;;
1721;SDS011;858;53.190;8.596;2024-03-08T01:59:31;35.13;;;21.00;;
1721;SDS011;858;53.190;8.596;2024-03-08T02:02:00;29.50;;;17.93;;
1721;SDS011;858;53.190;8.596;2024-03-08T02:04:26;37.23;;;19.60;;
1721;SDS011;858;53.190;8.596;2024-03-08T02:06:54;32.30;;;19.53;;
1721;SDS011;858;53.190;8.596;2024-03-08T02:09:23;32.07;;;18.03;;
1721;SDS011;858;53.190;8.596;2024-03-08T02:11:49;31.17;;;18.57;;
1721;SDS011;858;53.190;8.596;2024-03-08T02:14:17;34.80;;;18.43;;
1721;SDS011;858;53.190;8.596;2024-03-08T02:16:44;31.47;;;16.97;;
1721;SDS011;858;53.190;8.596;2024-03-08T02:19:10;36.10;;;19.97;;
1721;SDS011;858;53.190;8.596;2024-03-08T02:21:39;29.47;;;18.80;;
1721;SDS011;858;53.190;8.596;2024-03-08T02:24:05;37.17;;;20.20;;
1721;SDS011;858;53.190;8.596;2024-03-08T02:26:32;39.57;;;18.73;;
1721;SDS011;858;53.190;8.596;2024-03-08T02:28:58;33.50;;;19.00;;
1721;SDS011;858;53.190;8.596;2024-03-08T02:31:24;29.30;;;18.23;;
1721;SDS011;858;53.190;8.596;2024-03-08T02:33:51;31.30;;;19.23;;
1721;SDS011;858;53.190;8.596;2024-03-08T02:36:17;31.27;;;20.07;;
1721;SDS011;858;53.190;8.596;2024-03-08T02:38:47;38.97;;;19.20;;
1721;SDS011;858;53.190;8.596;2024-03-08T02:41:13;32.80;;;19.80;;
1721;SDS011;858;53.190;8.596;2024-03-08T02:43:40;39.23;;;20.30;;
1721;SDS011;858;53.190;8.596;2024-03-08T02:46:10;33.17;;;19.63;;
1721;SDS011;858;53.190;8.596;2024-03-08T02:48:37;33.30;;;18.63;;
1721;SDS011;858;53.190;8.596;2024-03-08T02:51:04;33.87;;;18.50;;
1721;SDS011;858;53.190;8.596;2024-03-08T02:53:31;32.80;;;19.17;;
1721;SDS011;858;53.190;8.596;2024-03-08T02:55:59;32.53;;;20.10;;
1721;SDS011;858;53.190;8.596;2024-03-08T02:58:28;34.07;;;19.77;;
1721;SDS011;858;53.190;8.596;2024-03-08T03:00:55;31.80;;;17.83;;
1721;SDS011;858;53.190;8.596;2024-03-08T03:03:23;30.67;;;18.43;;
1721;SDS011;858;53.190;8.596;2024-03-08T03:05:51;28.80;;;18.07;;
1721;SDS011;858;53.190;8.596;2024-03-08T03:08:21;32.23;;;19.17;;
1721;SDS011;858;53.190;8.596;2024-03-08T03:10:48;31.47;;;19.17;;
1721;SDS011;858;53.190;8.596;2024-03-08T03:13:16;34.27;;;19.53;;
1721;SDS011;858;53.190;8.596;2024-03-08T03:15:45;32.83;;;19.20;;
1721;SDS011;858;53.190;8.596;2024-03-08T03:18:12;30.03;;;16.30;;
1721;SDS011;858;53.190;8.596;2024-03-08T03:20:40;32.50;;;18.93;;
1721;SDS011;858;53.190;8.596;2024-03-08T03:23:07;34.20;;;18.73;;
1721;SDS011;858;53.190;8.596;2024-03-08T03:25:34;31.00;;;18.00;;
1721;SDS011;858;53.190;8.596;2024-03-08T03:28:01;33.00;;;20.07;;
1721;SDS011;858;53.190;8.596;2024-03-08T03:30:29;32.30;;;18.17;;
1721;SDS011;858;53.190;8.596;2024-03-08T03:32:58;33.83;;;19.07;;
1721;SDS011;858;53.190;8.596;2024-03-08T03:35:25;31.50;;;17.70;;
1721;SDS011;858;53.190;8.596;2024-03-08T03:37:52;36.33;;;19.50;;
1721;SDS011;858;53.190;8.596;2024-03-08T03:40:26;37.53;;;20.33;;
1721;SDS011;858;53.190;8.596;2024-03-08T03:42:53;32.00;;;18.57;;
1721;SDS011;858;53.190;8.596;2024-03-08T03:45:19;32.13;;;19.30;;
1721;SDS011;858;53.190;8.596;2024-03-08T03:47:47;32.97;;;19.70;;
1721;SDS011;858;53.190;8.596;2024-03-08T03:50:14;32.17;;;19.27;;
1721;SDS011;858;53.190;8.596;2024-03-08T03:52:40;31.27;;;19.03;;
1721;SDS011;858;53.190;8.596;2024-03-08T03:55:07;36.63;;;18.90;;
1721;SDS011;858;53.190;8.596;2024-03-08T03:57:37;35.50;;;18.37;;
1721;SDS011;858;53.190;8.596;2024-03-08T04:00:05;40.10;;;21.33;;
1721;SDS011;858;53.190;8.596;2024-03-08T04:02:35;33.40;;;18.10;;
1721;SDS011;858;53.190;8.596;2024-03-08T04:05:03;35.67;;;19.10;;
1721;SDS011;858;53.190;8.596;2024-03-08T04:07:29;28.90;;;18.60;;
1721;SDS011;858;53.190;8.596;2024-03-08T04:09:56;34.53;;;20.50;;
1721;SDS011;858;53.190;8.596;2024-03-08T04:12:26;34.93;;;21.43;;
1721;SDS011;858;53.190;8.596;2024-03-08T04:14:54;34.23;;;18.60;;
1721;SDS011;858;53.190;8.596;2024-03-08T04:17:20;31.60;;;17.90;;
1721;SDS011;858;53.190;8.596;2024-03-08T04:19:47;38.63;;;20.03;;
1721;SDS011;858;53.190;8.596;2024-03-08T04:22:15;39.67;;;20.13;;
1721;SDS011;858;53.190;8.596;2024-03-08T04:24:42;34.87;;;19.37;;
1721;SDS011;858;53.190;8.596;2024-03-08T04:27:08;31.73;;;18.93;;
1721;SDS011;858;53.190;8.596;2024-03-08T04:29:36;33.37;;;18.30;;
1721;SDS011;858;53.190;8.596;2024-03-08T04:32:03;29.70;;;19.73;;
1721;SDS011;858;53.190;8.596;2024-03-08T04:34:31;36.10;;;19.60;;
1721;SDS011;858;53.190;8.596;2024-03-08T04:36:59;40.53;;;20.20;;
1721;SDS011;858;53.190;8.596;2024-03-08T04:39:27;37.40;;;20.63;;
1721;SDS011;858;53.190;8.596;2024-03-08T04:41:54;32.73;;;19.10;;
1721;SDS011;858;53.190;8.596;2024-03-08T04:44:22;41.33;;;19.77;;
1721;SDS011;858;53.190;8.596;2024-03-08T04:46:50;39.90;;;20.27;;
1721;SDS011;858;53.190;8.596;2024-03-08T04:49:18;35.37;;;22.60;;
1721;SDS011;858;53.190;8.596;2024-03-08T04:51:46;35.17;;;19.80;;
1721;SDS011;858;53.190;8.596;2024-03-08T04:54:13;34.80;;;19.10;;
1721;SDS011;858;53.190;8.596;2024-03-08T04:56:41;36.70;;;21.03;;
1721;SDS011;858;53.190;8.596;2024-03-08T04:59:08;41.20;;;22.20;;
1721;SDS011;858;53.190;8.596;2024-03-08T05:01:34;42.90;;;20.20;;
1721;SDS011;858;53.190;8.596;2024-03-08T05:04:02;35.87;;;19.97;;
1721;SDS011;858;53.190;8.596;2024-03-08T05:06:29;35.23;;;19.50;;
1721;SDS011;858;53.190;8.596;2024-03-08T05:08:57;34.73;;;20.40;;
1721;SDS011;858;53.190;8.596;2024-03-08T05:11:23;35.97;;;18.80;;
1721;SDS011;858;53.190;8.596;2024-03-08T05:13:51;35.43;;;18.93;;
1721;SDS011;858;53.190;8.596;2024-03-08T05:16:18;39.20;;;22.13;;
1721;SDS011;858;53.190;8.596;2024-03-08T05:18:47;39.63;;;21.90;;
1721;SDS011;858;53.190;8.596;2024-03-08T05:21:14;33.97;;;20.97;;
1721;SDS011;858;53.190;8.596;2024-03-08T05:23:42;40.97;;;22.60;;
1721;SDS011;858;53.190;8.596;2024-03-08T05:26:09;38.37;;;20.40;;
1721;SDS011;858;53.190;8.596;2024-03-08T05:28:35;39.00;;;20.90;;
1721;SDS011;858;53.190;8.596;2024-03-08T05:31:04;37.43;;;21.90;;
1721;SDS011;858;53.190;8.596;2024-03-08T05:33:31;38.40;;;21.30;;
1721;SDS011;858;53.190;8.596;2024-03-08T05:35:59;31.13;;;20.10;;
1721;SDS011;858;53.190;8.596;2024-03-08T05:38:27;35.10;;;19.97;;
1721;SDS011;858;53.190;8.596;2024-03-08T05:40:53;45.23;;;21.50;;
1721;SDS011;858;53.190;8.596;2024-03-08T05:43:19;30.57;;;20.20;;
1721;SDS011;858;53.190;8.596;2024-03-08T05:45:46;41.13;;;22.47;;
1721;SDS011;858;53.190;8.596;2024-03-08T05:48:14;43.47;;;22.40;;
1721;SDS011;858;53.190;8.596;2024-03-08T05:50:43;43.13;;;20.90;;
1721;SDS011;858;53.190;8.596;2024-03-08T05:53:10;38.37;;;21.37;;
1721;SDS011;858;53.190;8.596;2024-03-08T05:55:37;36.80;;;22.27;;
1721;SDS011;858;53.190;8.596;2024-03-08T05:58:04;39.63;;;21.27;;
1721;SDS011;858;53.190;8.596;2024-03-08T06:00:33;35.57;;;20.27;;
1721;SDS011;858;53.190;8.596;2024-03-08T06:03:01;38.50;;;20.50;;
1721;SDS011;858;53.190;8.596;2024-03-08T06:05:29;41.00;;;22.83;;
1721;SDS011;858;53.190;8.596;2024-03-08T06:07:56;45.67;;;23.03;;
1721;SDS011;858;53.190;8.596;2024-03-08T06:10:22;39.77;;;22.03;;
1721;SDS011;858;53.190;8.596;2024-03-08T06:12:49;38.30;;;22.30;;
1721;SDS011;858;53.190;8.596;2024-03-08T06:15:16;39.63;;;23.90;;
1721;SDS011;858;53.190;8.596;2024-03-08T06:17:46;36.13;;;21.20;;
1721;SDS011;858;53.190;8.596;2024-03-08T06:20:12;40.20;;;23.03;;
1721;SDS011;858;53.190;8.596;2024-03-08T06:22:40;42.97;;;23.33;;
1721;SDS011;858;53.190;8.596;2024-03-08T06:25:07;43.30;;;23.17;;
1721;SDS011;858;53.190;8.596;2024-03-08T06:27:33;38.80;;;22.07;;
1721;SDS011;858;53.190;8.596;2024-03-08T06:30:00;41.47;;;22.30;;
1721;SDS011;858;53.190;8.596;2024-03-08T06:32:29;42.77;;;22.93;;
1721;SDS011;858;53.190;8.596;2024-03-08T06:34:56;44.23;;;23.40;;
1721;SDS011;858;53.190;8.596;2024-03-08T06:37:22;44.77;;;24.10;;
1721;SDS011;858;53.190;8.596;2024-03-08T06:39:51;39.83;;;22.60;;
1721;SDS011;858;53.190;8.596;2024-03-08T06:42:19;50.90;;;25.63;;
1721;SDS011;858;53.190;8.596;2024-03-08T06:44:45;47.47;;;24.63;;
1721;SDS011;858;53.190;8.596;2024-03-08T06:47:15;42.27;;;25.30;;
1721;SDS011;858;53.190;8.596;2024-03-08T06:49:41;47.97;;;23.93;;
1721;SDS011;858;53.190;8.596;2024-03-08T06:52:09;40.27;;;23.90;;
1721;SDS011;858;53.190;8.596;2024-03-08T06:54:36;39.67;;;24.50;;
1721;SDS011;858;53.190;8.596;2024-03-08T06:57:04;46.37;;;23.20;;
1721;SDS011;858;53.190;8.596;2024-03-08T06:59:31;45.17;;;23.63;;
1721;SDS011;858;53.190;8.596;2024-03-08T07:01:57;38.97;;;22.93;;
1721;SDS011;858;53.190;8.596;2024-03-08T07:04:24;44.63;;;23.47;;
1721;SDS011;858;53.190;8.596;2024-03-08T07:06:54;45.27;;;22.20;;
1721;SDS011;858;53.190;8.596;2024-03-08T07:09:20;33.73;;;22.07;;
1721;SDS011;858;53.190;8.596;2024-03-08T07:11:46;35.57;;;19.40;;
1721;SDS011;858;53.190;8.596;2024-03-08T07:14:21;45.13;;;24.00;;
1721;SDS011;858;53.190;8.596;2024-03-08T07:16:48;34.27;;;20.83;;
1721;SDS011;858;53.190;8.596;2024-03-08T07:19:14;37.77;;;21.80;;
1721;SDS011;858;53.190;8.596;2024-03-08T07:21:41;35.50;;;21.87;;
1721;SDS011;858;53.190;8.596;2024-03-08T07:24:09;38.47;;;22.50;;
1721;SDS011;858;53.190;8.596;2024-03-08T07:26:52;37.57;;;22.73;;
1721;SDS011;858;53.190;8.596;2024-03-08T07:29:22;38.60;;;22.10;;
1721;SDS011;858;53.190;8.596;2024-03-08T07:31:49;34.30;;;21.43;;
1721;SDS011;858;53.190;8.596;2024-03-08T07:34:27;36.33;;;21.57;;
1721;SDS011;858;53.190;8.596;2024-03-08T07:36:57;44.43;;;21.60;;
1721;SDS011;858;53.190;8.596;2024-03-08T07:39:24;37.47;;;21.80;;
1721;SDS011;858;53.190;8.596;2024-03-08T07:41:51;40.90;;;21.97;;
1721;SDS011;858;53.190;8.596;2024-03-08T07:44:17;37.30;;;22.30;;
1721;SDS011;858;53.190;8.596;2024-03-08T07:46:45;35.73;;;22.40;;
1721;SDS011;858;53.190;8.596;2024-03-08T07:49:12;41.47;;;22.53;;
1721;SDS011;858;53.190;8.596;2024-03-08T07:51:40;36.87;;;21.93;;
1721;SDS011;858;53.190;8.596;2024-03-08T07:54:10;36.30;;;22.27;;
1721;SDS011;858;53.190;8.596;2024-03-08T07:56:36;41.63;;;23.50;;
1721;SDS011;858;53.190;8.596;2024-03-08T07:59:03;38.73;;;21.77;;
1721;SDS011;858;53.190;8.596;2024-03-08T08:01:30;37.80;;;21.43;;
1721;SDS011;858;53.190;8.596;2024-03-08T08:03:59;38.03;;;20.87;;
1721;SDS011;858;53.190;8.596;2024-03-08T08:06:26;40.57;;;21.07;;
1721;SDS011;858;53.190;8.596;2024-03-08T08:08:53;39.37;;;22.50;;
1721;SDS011;858;53.190;8.596;2024-03-08T08:11:21;31.33;;;20.03;;
1721;SDS011;858;53.190;8.596;2024-03-08T08:13:48;36.83;;;21.90;;
1721;SDS011;858;53.190;8.596;2024-03-08T08:16:14;36.70;;;21.53;;
1721;SDS011;858;53.190;8.596;2024-03-08T08:18:41;36.80;;;21.30;;
1721;SDS011;858;53.190;8.596;2024-03-08T08:21:08;34.10;;;20.63;;
1721;SDS011;858;53.190;8.596;2024-03-08T08:23:35;35.53;;;19.97;;
1721;SDS011;858;53.190;8.596;2024-03-08T08:26:03;37.53;;;20.30;;
1721;SDS011;858;53.190;8.596;2024-03-08T08:28:29;33.87;;;20.20;;
1721;SDS011;858;53.190;8.596;2024-03-08T08:30:56;33.47;;;20.70;;
1721;SDS011;858;53.190;8.596;2024-03-08T08:33:25;28.00;;;18.87;;
1721;SDS011;858;53.190;8.596;2024-03-08T08:35:52;29.60;;;19.43;;
1721;SDS011;858;53.190;8.596;2024-03-08T08:38:20;34.10;;;21.10;;
1721;SDS011;858;53.190;8.596;2024-03-08T08:40:46;29.37;;;20.53;;
1721;SDS011;858;53.190;8.596;2024-03-08T08:43:13;33.40;;;21.57;;
1721;SDS011;858;53.190;8.596;2024-03-08T08:45:40;29.80;;;20.00;;
1721;SDS011;858;53.190;8.596;2024-03-08T08:48:07;31.47;;;21.37;;
1721;SDS011;858;53.190;8.596;2024-03-08T08:50:35;34.53;;;21.37;;
1721;SDS011;858;53.190;8.596;2024-03-08T08:53:02;38.13;;;23.30;;
1721;SDS011;858;53.190;8.596;2024-03-08T08:55:30;36.27;;;22.63;;
1721;SDS011;858;53.190;8.596;2024-03-08T08:57:56;35.83;;;20.60;;
1721;SDS011;858;53.190;8.596;2024-03-08T09:00:24;39.97;;;22.47;;
1721;SDS011;858;53.190;8.596;2024-03-08T09:02:56;30.70;;;20.43;;
1721;SDS011;858;53.190;8.596;2024-03-08T09:05:23;33.03;;;22.50;;
1721;SDS011;858;53.190;8.596;2024-03-08T09:07:49;37.80;;;21.10;;
1721;SDS011;858;53.190;8.596;2024-03-08T09:10:17;32.27;;;21.80;;
1721;SDS011;858;53.190;8.596;2024-03-08T09:12:45;31.83;;;20.80;;
1721;SDS011;858;53.190;8.596;2024-03-08T09:15:12;38.73;;;22.30;;
1721;SDS011;858;53.190;8.596;2024-03-08T09:17:39;38.33;;;23.27;;
1721;SDS011;858;53.190;8.596;2024-03-08T09:20:06;26.97;;;17.83;;
1721;SDS011;858;53.190;8.596;2024-03-08T09:22:33;31.40;;;21.00;;
1721;SDS011;858;53.190;8.596;2024-03-08T09:25:00;37.77;;;21.30;;
1721;SDS011;858;53.190;8.596;2024-03-08T09:27:27;30.57;;;20.30;;
1721;SDS011;858;53.190;8.596;2024-03-08T09:29:55;32.30;;;21.30;;
1721;SDS011;858;53.190;8.596;2024-03-08T09:32:21;29.30;;;22.07;;
1721;SDS011;858;53.190;8.596;2024-03-08T09:34:48;34.73;;;20.70;;
1721;SDS011;858;53.190;8.596;2024-03-08T09:37:16;35.97;;;21.73;;
1721;SDS011;858;53.190;8.596;2024-03-08T09:39:44;30.00;;;19.73;;
1721;SDS011;858;53.190;8.596;2024-03-08T09:42:12;33.30;;;21.37;;
1721;SDS011;858;53.190;8.596;2024-03-08T09:44:39;34.30;;;23.10;;
1721;SDS011;858;53.190;8.596;2024-03-08T09:47:09;32.40;;;20.40;;
1721;SDS011;858;53.190;8.596;2024-03-08T09:49:39;33.17;;;21.27;;
1721;SDS011;858;53.190;8.596;2024-03-08T09:52:06;35.70;;;21.73;;
1721;SDS011;858;53.190;8.596;2024-03-08T09:54:35;34.47;;;23.00;;
1721;SDS011;858;53.190;8.596;2024-03-08T09:57:01;34.17;;;21.83;;
1721;SDS011;858;53.190;8.596;2024-03-08T09:59:29;29.27;;;21.20;;
1721;SDS011;858;53.190;8.596;2024-03-08T10:02:13;29.63;;;21.13;;
1721;SDS011;858;53.190;8.596;2024-03-08T10:04:41;28.73;;;20.67;;
1721;SDS011;858;53.190;8.596;2024-03-08T10:07:09;32.00;;;19.83;;
1721;SDS011;858;53.190;8.596;2024-03-08T10:09:36;33.47;;;21.40;;
1721;SDS011;858;53.190;8.596;2024-03-08T10:12:02;39.10;;;23.63;;
1721;SDS011;858;53.190;8.596;2024-03-08T10:14:31;35.17;;;21.77;;
1721;SDS011;858;53.190;8.596;2024-03-08T10:16:58;34.67;;;22.37;;
1721;SDS011;858;53.190;8.596;2024-03-08T10:19:27;36.93;;;22.53;;
1721;SDS011;858;53.190;8.596;2024-03-08T10:21:55;34.50;;;22.63;;
1721;SDS011;858;53.190;8.596;2024-03-08T10:24:23;32.47;;;21.30;;
1721;SDS011;858;53.190;8.596;2024-03-08T10:26:51;34.30;;;21.13;;
1721;SDS011;858;53.190;8.596;2024-03-08T10:29:18;30.90;;;22.37;;
1721;SDS011;858;53.190;8.596;2024-03-08T10:31:45;33.47;;;20.67;;
1721;SDS011;858;53.190;8.596;2024-03-08T10:34:12;31.70;;;21.90;;
1721;SDS011;858;53.190;8.596;2024-03-08T10:36:40;33.20;;;21.27;;
1721;SDS011;858;53.190;8.596;2024-03-08T10:39:08;31.73;;;21.43;;
1721;SDS011;858;53.190;8.596;2024-03-08T10:41:36;36.80;;;23.10;;
1721;SDS011;858;53.190;8.596;2024-03-08T10:44:08;32.93;;;21.87;;
1721;SDS011;858;53.190;8.596;2024-03-08T10:46:40;34.93;;;21.40;;
1721;SDS011;858;53.190;8.596;2024-03-08T10:49:12;32.60;;;22.43;;
1721;SDS011;858;53.190;8.596;2024-03-08T10:51:43;33.57;;;21.27;;
1721;SDS011;858;53.190;8.596;2024-03-08T10:54:11;32.70;;;21.40;;
1721;SDS011;858;53.190;8.596;2024-03-08T10:56:40;32.83;;;22.43;;
1721;SDS011;858;53.190;8.596;2024-03-08T10:59:07;30.83;;;23.20;;
1721;SDS011;858;53.190;8.596;2024-03-08T11:01:35;39.30;;;24.43;;
1721;SDS011;858;53.190;8.596;2024-03-08T11:04:03;31.33;;;22.10;;
1721;SDS011;858;53.190;8.596;2024-03-08T11:06:41;34.17;;;23.50;;
1721;SDS011;858;53.190;8.596;2024-03-08T11:09:11;39.70;;;23.73;;
1721;SDS011;858;53.190;8.596;2024-03-08T11:11:56;33.50;;;22.50;;
1721;SDS011;858;53.190;8.596;2024-03-08T11:14:42;35.80;;;23.27;;
1721;SDS011;858;53.190;8.596;2024-03-08T11:17:09;34.57;;;23.20;;
1721;SDS011;858;53.190;8.596;2024-03-08T11:19:35;33.90;;;23.70;;
1721;SDS011;858;53.190;8.596;2024-03-08T11:22:02;32.10;;;20.77;;
1721;SDS011;858;53.190;8.596;2024-03-08T11:24:40;34.63;;;22.80;;
1721;SDS011;858;53.190;8.596;2024-03-08T11:27:07;30.60;;;22.50;;
1721;SDS011;858;53.190;8.596;2024-03-08T11:29:38;31.53;;;21.13;;
1721;SDS011;858;53.190;8.596;2024-03-08T11:32:08;38.23;;;22.40;;
1721;SDS011;858;53.190;8.596;2024-03-08T11:34:36;34.00;;;21.10;;
1721;SDS011;858;53.190;8.596;2024-03-08T11:37:04;35.03;;;22.40;;
1721;SDS011;858;53.190;8.596;2024-03-08T11:39:31;29.73;;;21.40;;
1721;SDS011;858;53.190;8.596;2024-03-08T11:41:59;34.07;;;23.40;;
1721;SDS011;858;53.190;8.596;2024-03-08T11:44:26;29.07;;;20.70;;
1721;SDS011;858;53.190;8.596;2024-03-08T11:46:54;32.07;;;22.17;;
1721;SDS011;858;53.190;8.596;2024-03-08T11:49:22;35.53;;;23.77;;
1721;SDS011;858;53.190;8.596;2024-03-08T11:51:51;31.50;;;20.83;;
1721;SDS011;858;53.190;8.596;2024-03-08T11:54:17;32.07;;;22.30;;
1721;SDS011;858;53.190;8.596;2024-03-08T11:56:44;32.63;;;21.10;;
1721;SDS011;858;53.190;8.596;2024-03-08T11:59:13;33.73;;;21.40;;
1721;SDS011;858;53.190;8.596;2024-03-08T12:01:40;32.13;;;22.37;;
1721;SDS011;858;53.190;8.596;2024-03-08T12:04:10;31.73;;;20.93;;
1721;SDS011;858;53.190;8.596;2024-03-08T12:06:38;32.80;;;21.10;;
1721;SDS011;858;53.190;8.596;2024-03-08T12:09:07;31.57;;;22.67;;
1721;SDS011;858;53.190;8.596;2024-03-08T12:11:35;33.20;;;22.30;;
1721;SDS011;858;53.190;8.596;2024-03-08T12:14:03;31.17;;;21.37;;
1721;SDS011;858;53.190;8.596;2024-03-08T12:16:32;30.77;;;22.40;;
1721;SDS011;858;53.190;8.596;2024-03-08T12:18:59;29.37;;;20.90;;
1721;SDS011;858;53.190;8.596;2024-03-08T12:21:31;33.57;;;23.17;;
1721;SDS011;858;53.190;8.596;2024-03-08T12:24:04;29.03;;;20.97;;
1721;SDS011;858;53.190;8.596;2024-03-08T12:26:34;32.70;;;21.80;;
1721;SDS011;858;53.190;8.596;2024-03-08T12:29:17;35.87;;;21.70;;
1721;SDS011;858;53.190;8.596;2024-03-08T12:31:47;34.47;;;21.97;;
1721;SDS011;858;53.190;8.596;2024-03-08T12:34:13;33.27;;;19.97;;
1721;SDS011;858;53.190;8.596;2024-03-08T12:36:44;30.13;;;20.70;;
1721;SDS011;858;53.190;8.596;2024-03-08T12:39:12;35.10;;;21.80;;
1721;SDS011;858;53.190;8.596;2024-03-08T12:41:41;30.77;;;20.53;;
1721;SDS011;858;53.190;8.596;2024-03-08T12:44:09;29.20;;;20.10;;
1721;SDS011;858;53.190;8.596;2024-03-08T12:46:38;32.53;;;23.30;;
1721;SDS011;858;53.190;8.596;2024-03-08T12:49:08;31.33;;;20.43;;
1721;SDS011;858;53.190;8.596;2024-03-08T12:51:37;26.60;;;20.60;;
1721;SDS011;858;53.190;8.596;2024-03-08T12:54:04;30.03;;;18.67;;
1721;SDS011;858;53.190;8.596;2024-03-08T12:56:34;29.43;;;19.80;;
1721;SDS011;858;53.190;8.596;2024-03-08T12:59:02;27.70;;;18.80;;
1721;SDS011;858;53.190;8.596;2024-03-08T13:01:29;32.83;;;21.00;;
1721;SDS011;858;53.190;8.596;2024-03-08T13:03:57;30.67;;;20.67;;
1721;SDS011;858;53.190;8.596;2024-03-08T13:06:24;32.77;;;21.33;;
1721;SDS011;858;53.190;8.596;2024-03-08T13:08:51;31.80;;;20.40;;
1721;SDS011;858;53.190;8.596;2024-03-08T13:11:19;30.57;;;21.00;;
1721;SDS011;858;53.190;8.596;2024-03-08T13:13:45;27.50;;;19.73;;
1721;SDS011;858;53.190;8.596;2024-03-08T13:16:12;30.70;;;22.10;;
1721;SDS011;858;53.190;8.596;2024-03-08T13:18:39;27.70;;;20.63;;
1721;SDS011;858;53.190;8.596;2024-03-08T13:21:07;34.07;;;20.13;;
1721;SDS011;858;53.190;8.596;2024-03-08T13:23:36;34.87;;;21.10;;
1721;SDS011;858;53.190;8.596;2024-03-08T13:26:05;30.60;;;20.50;;
1721;SDS011;858;53.190;8.596;2024-03-08T13:28:31;29.87;;;21.70;;
1721;SDS011;858;53.190;8.596;2024-03-08T13:31:02;30.80;;;20.27;;
1721;SDS011;858;53.190;8.596;2024-03-08T13:33:28;30.13;;;21.97;;
1721;SDS011;858;53.190;8.596;2024-03-08T13:35:55;33.22;;;22.25;;
1721;SDS011;858;53.190;8.596;2024-03-08T13:38:22;31.07;;;21.07;;
1721;SDS011;858;53.190;8.596;2024-03-08T13:40:50;33.07;;;23.17;;
1721;SDS011;858;53.190;8.596;2024-03-08T13:43:17;28.70;;;20.20;;
1721;SDS011;858;53.190;8.596;2024-03-08T13:45:44;29.17;;;19.57;;
1721;SDS011;858;53.190;8.596;2024-03-08T13:48:10;30.70;;;20.77;;
1721;SDS011;858;53.190;8.596;2024-03-08T13:50:38;29.07;;;19.77;;
1721;SDS011;858;53.190;8.596;2024-03-08T13:53:05;28.40;;;21.30;;
1721;SDS011;858;53.190;8.596;2024-03-08T13:55:31;29.53;;;21.20;;
1721;SDS011;858;53.190;8.596;2024-03-08T13:57:59;33.63;;;20.60;;
1721;SDS011;858;53.190;8.596;2024-03-08T14:00:27;32.30;;;20.70;;
1721;SDS011;858;53.190;8.596;2024-03-08T14:02:58;27.63;;;20.07;;
1721;SDS011;858;53.190;8.596;2024-03-08T14:05:25;27.87;;;20.10;;
1721;SDS011;858;53.190;8.596;2024-03-08T14:07:52;30.83;;;21.27;;
1721;SDS011;858;53.190;8.596;2024-03-08T14:10:19;31.50;;;21.53;;
1721;SDS011;858;53.190;8.596;2024-03-08T14:12:48;33.30;;;20.87;;
1721;SDS011;858;53.190;8.596;2024-03-08T14:15:16;42.27;;;25.60;;
1721;SDS011;858;53.190;8.596;2024-03-08T14:17:43;35.40;;;22.77;;
1721;SDS011;858;53.190;8.596;2024-03-08T14:20:11;30.07;;;20.13;;
1721;SDS011;858;53.190;8.596;2024-03-08T14:22:42;30.43;;;20.60;;
1721;SDS011;858;53.190;8.596;2024-03-08T14:25:09;32.30;;;21.80;;
1721;SDS011;858;53.190;8.596;2024-03-08T14:27:42;30.40;;;20.27;;
1721;SDS011;858;53.190;8.596;2024-03-08T14:30:09;29.97;;;20.47;;
1721;SDS011;858;53.190;8.596;2024-03-08T14:32:37;32.33;;;22.73;;
1721;SDS011;858;53.190;8.596;2024-03-08T14:35:04;31.37;;;22.00;;
1721;SDS011;858;53.190;8.596;2024-03-08T14:37:31;30.80;;;21.93;;
1721;SDS011;858;53.190;8.596;2024-03-08T14:39:57;34.53;;;22.10;;
1721;SDS011;858;53.190;8.596;2024-03-08T14:42:25;28.43;;;20.50;;
1721;SDS011;858;53.190;8.596;2024-03-08T14:44:51;26.70;;;20.07;;
1721;SDS011;858;53.190;8.596;2024-03-08T14:47:19;28.87;;;21.07;;
1721;SDS011;858;53.190;8.596;2024-03-08T14:49:48;33.17;;;21.47;;
1721;SDS011;858;53.190;8.596;2024-03-08T14:52:15;27.10;;;20.73;;
1721;SDS011;858;53.190;8.596;2024-03-08T14:54:53;35.53;;;23.00;;
1721;SDS011;858;53.190;8.596;2024-03-08T14:57:19;30.97;;;21.43;;
1721;SDS011;858;53.190;8.596;2024-03-08T14:59:46;33.87;;;20.03;;
1721;SDS011;858;53.190;8.596;2024-03-08T15:02:12;32.60;;;20.47;;
1721;SDS011;858;53.190;8.596;2024-03-08T15:04:39;28.43;;;20.27;;